createdAt,value
2018-11-26T00:00:36.134Z,77.23
2018-11-26T00:03:07.021Z,78.21
2018-11-26T00:05:34.754Z,77.40
2018-11-26T00:08:02.573Z,77.17
2018-11-26T00:10:42.182Z,77.50
2018-11-26T00:13:09.902Z,77.36
2018-11-26T00:15:37.741Z,77.35
2018-11-26T00:18:05.808Z,77.43
2018-11-26T00:20:33.531Z,77.15
2018-11-26T00:23:01.336Z,77.56
2018-11-26T00:25:29.075Z,77.10
2018-11-26T00:27:56.827Z,76.74
2018-11-26T00:30:24.545Z,77.25
2018-11-26T00:32:52.238Z,77.32
2018-11-26T00:35:20.025Z,77.31
2018-11-26T00:37:47.761Z,77.89
2018-11-26T00:40:15.460Z,77.48
2018-11-26T00:42:43.189Z,77.25
2018-11-26T00:45:11.902Z,77.23
2018-11-26T00:47:39.600Z,77.42
2018-11-26T00:50:08.678Z,78.20
2018-11-26T00:52:36.402Z,77.78
2018-11-26T00:55:04.631Z,78.09
2018-11-26T00:57:32.346Z,77.50
2018-11-26T01:00:00.097Z,78.43
2018-11-26T01:02:27.846Z,77.83
2018-11-26T01:04:55.590Z,78.03
2018-11-26T01:07:23.372Z,78.01
2018-11-26T01:09:51.137Z,77.91
2018-11-26T01:12:18.903Z,77.99
2018-11-26T01:14:46.628Z,78.75
2018-11-26T01:17:14.318Z,78.14
2018-11-26T01:19:42.048Z,78.08
2018-11-26T01:22:09.733Z,78.74
2018-11-26T01:24:37.554Z,78.54
2018-11-26T01:27:05.507Z,78.48
2018-11-26T01:29:33.234Z,78.19
2018-11-26T01:32:00.969Z,78.68
2018-11-26T01:34:28.704Z,78.51
2018-11-26T01:36:56.431Z,78.44
2018-11-26T01:39:24.141Z,78.46
2018-11-26T01:41:51.937Z,78.97
2018-11-26T01:44:19.705Z,79.02
2018-11-26T01:46:47.413Z,78.90
2018-11-26T01:49:15.165Z,78.45
2018-11-26T01:51:42.894Z,78.60
2018-11-26T01:54:10.604Z,78.66
2018-11-26T01:56:38.321Z,78.76
2018-11-26T01:59:06.125Z,78.75
2018-11-26T02:01:33.877Z,78.65
2018-11-26T02:04:01.680Z,78.93
2018-11-26T02:06:29.463Z,78.85
2018-11-26T02:08:57.175Z,78.82
2018-11-26T02:11:24.871Z,78.68
2018-11-26T02:13:52.603Z,78.98
2018-11-26T02:16:20.365Z,78.26
2018-11-26T02:18:48.132Z,78.84
2018-11-26T02:21:15.854Z,78.21
2018-11-26T02:23:43.577Z,78.64
2018-11-26T02:26:11.367Z,78.75
2018-11-26T02:28:39.116Z,78.52
2018-11-26T02:31:06.859Z,78.77
2018-11-26T02:33:34.581Z,78.33
2018-11-26T02:36:02.398Z,78.91
2018-11-26T02:38:30.136Z,78.74
2018-11-26T02:40:57.918Z,78.40
2018-11-26T02:43:25.651Z,78.57
2018-11-26T02:45:53.378Z,78.29
2018-11-26T02:48:21.133Z,78.19
2018-11-26T02:50:48.820Z,78.90
2018-11-26T02:53:16.797Z,78.94
2018-11-26T02:55:44.548Z,78.65
2018-11-26T02:58:12.286Z,78.60
2018-11-26T03:00:40.157Z,78.18
2018-11-26T03:03:07.917Z,78.48
2018-11-26T03:05:35.687Z,78.03
2018-11-26T03:08:03.449Z,78.69
2018-11-26T03:10:31.204Z,78.91
2018-11-26T03:12:58.934Z,78.87
2018-11-26T03:15:26.703Z,78.87
2018-11-26T03:17:54.468Z,78.86
2018-11-26T03:20:22.153Z,78.41
2018-11-26T03:22:49.901Z,78.68
2018-11-26T03:25:17.662Z,78.97
2018-11-26T03:27:45.418Z,79.02
2018-11-26T03:30:17.312Z,78.54
2018-11-26T03:32:45.045Z,78.04
2018-11-26T03:35:12.829Z,78.62
2018-11-26T03:37:40.562Z,78.71
2018-11-26T03:40:10.778Z,78.49
2018-11-26T03:42:38.565Z,78.37
2018-11-26T03:45:10.435Z,78.37
2018-11-26T03:47:38.181Z,78.40
2018-11-26T03:50:06.358Z,78.03
2018-11-26T03:52:34.202Z,78.37
2018-11-26T03:55:01.922Z,78.18
2018-11-26T03:57:29.711Z,78.07
2018-11-26T03:59:57.443Z,77.88
2018-11-26T04:02:25.175Z,78.18
2018-11-26T04:04:52.886Z,78.13
2018-11-26T04:07:20.567Z,78.08
2018-11-26T04:09:48.297Z,78.39
2018-11-26T04:12:16.043Z,78.13
2018-11-26T04:14:43.785Z,78.18
2018-11-26T04:17:11.522Z,78.04
2018-11-26T04:19:39.235Z,77.87
2018-11-26T04:22:06.920Z,77.30
2018-11-26T04:24:35.480Z,77.71
2018-11-26T04:27:03.170Z,77.83
2018-11-26T04:29:30.902Z,78.17
2018-11-26T04:31:58.638Z,78.21
2018-11-26T04:34:26.362Z,78.19
2018-11-26T04:36:54.069Z,78.07
2018-11-26T04:39:21.745Z,77.96
2018-11-26T04:41:49.512Z,77.47
2018-11-26T04:44:17.225Z,77.66
2018-11-26T04:46:44.941Z,77.38
2018-11-26T04:49:12.679Z,77.40
2018-11-26T04:51:40.417Z,77.65
2018-11-26T04:54:08.165Z,77.94
2018-11-26T04:56:35.881Z,78.14
2018-11-26T04:59:03.617Z,77.51
2018-11-26T05:01:31.343Z,77.78
2018-11-26T05:03:59.111Z,77.97
2018-11-26T05:06:26.795Z,78.53
2018-11-26T05:08:54.600Z,77.95
2018-11-26T05:11:22.319Z,77.69
2018-11-26T05:13:50.079Z,77.96
2018-11-26T05:16:17.837Z,77.89
2018-11-26T05:18:45.557Z,77.93
2018-11-26T05:21:13.339Z,78.18
2018-11-26T05:23:41.119Z,78.35
2018-11-26T05:26:08.888Z,77.70
2018-11-26T05:28:36.681Z,77.70
2018-11-26T05:31:04.707Z,77.69
2018-11-26T05:33:32.420Z,77.82
2018-11-26T05:36:00.173Z,77.63
2018-11-26T05:38:27.893Z,77.95
2018-11-26T05:40:55.639Z,78.32
2018-11-26T05:43:23.378Z,77.77
2018-11-26T05:45:51.088Z,77.96
2018-11-26T05:48:18.833Z,78.08
2018-11-26T05:50:46.523Z,77.45
2018-11-26T05:53:14.294Z,77.47
2018-11-26T05:55:42.080Z,78.21
2018-11-26T05:58:09.835Z,77.76
2018-11-26T06:00:37.677Z,77.73
2018-11-26T06:03:06.014Z,77.98
2018-11-26T06:05:33.774Z,77.74
2018-11-26T06:08:01.489Z,77.72
2018-11-26T06:10:29.234Z,78.02
2018-11-26T06:12:56.979Z,77.91
2018-11-26T06:15:24.664Z,77.84
2018-11-26T06:17:52.449Z,77.63
2018-11-26T06:20:20.261Z,78.21
2018-11-26T06:22:48.061Z,77.65
2018-11-26T06:25:17.179Z,77.83
2018-11-26T06:27:45.490Z,78.27
2018-11-26T06:30:14.354Z,78.06
2018-11-26T06:32:42.262Z,78.00
2018-11-26T06:35:12.435Z,78.15
2018-11-26T06:37:40.150Z,78.30
2018-11-26T06:40:08.986Z,78.65
2018-11-26T06:42:36.703Z,78.23
2018-11-26T06:45:06.540Z,78.20
2018-11-26T06:47:34.266Z,78.38
2018-11-26T06:50:01.982Z,78.00
2018-11-26T06:52:32.378Z,78.05
2018-11-26T06:55:00.183Z,77.95
2018-11-26T06:57:27.942Z,78.16
2018-11-26T06:59:55.658Z,77.48
2018-11-26T07:02:23.385Z,77.64
2018-11-26T07:04:51.192Z,77.30
2018-11-26T07:07:19.312Z,77.29
2018-11-26T07:09:47.116Z,77.19
2018-11-26T07:12:14.813Z,76.77
2018-11-26T07:14:42.561Z,76.80
2018-11-26T07:17:10.275Z,76.72
2018-11-26T07:19:37.991Z,76.09
2018-11-26T07:22:05.723Z,76.10
2018-11-26T07:24:34.425Z,75.65
2018-11-26T07:27:03.088Z,75.80
2018-11-26T07:29:30.814Z,75.43
2018-11-26T07:31:58.555Z,75.49
2018-11-26T07:34:26.286Z,75.36
2018-11-26T07:36:54.051Z,75.16
2018-11-26T07:39:21.839Z,75.01
2018-11-26T07:41:49.616Z,74.82
2018-11-26T07:44:17.355Z,74.91
2018-11-26T07:46:45.119Z,74.46
2018-11-26T07:49:12.913Z,74.00
2018-11-26T07:51:40.681Z,73.95
2018-11-26T07:54:08.403Z,74.29
2018-11-26T07:56:36.252Z,74.04
2018-11-26T07:59:04.170Z,74.18
2018-11-26T08:01:32.833Z,73.92
2018-11-26T08:04:00.675Z,73.99
2018-11-26T08:06:28.437Z,74.24
2018-11-26T08:08:56.185Z,73.53
2018-11-26T08:11:24.074Z,74.00
2018-11-26T08:13:51.829Z,73.51
2018-11-26T08:16:19.576Z,73.59
2018-11-26T08:18:47.361Z,73.46
2018-11-26T08:21:15.267Z,74.16
2018-11-26T08:23:43.102Z,73.65
2018-11-26T08:26:10.869Z,74.02
2018-11-26T08:28:38.653Z,73.81
2018-11-26T08:31:06.717Z,73.74
2018-11-26T08:33:34.508Z,74.43
2018-11-26T08:36:08.694Z,73.58
2018-11-26T08:38:42.293Z,73.34
2018-11-26T08:41:14.029Z,73.84
2018-11-26T08:43:44.638Z,73.84
2018-11-26T08:46:18.291Z,73.65
2018-11-26T08:48:52.582Z,73.43
2018-11-26T08:51:20.580Z,73.79
2018-11-26T08:53:48.420Z,73.82
2018-11-26T08:56:16.279Z,73.54
2018-11-26T08:58:44.044Z,73.43
2018-11-26T09:01:17.198Z,73.68
2018-11-26T09:03:48.027Z,73.44
2018-11-26T09:06:16.229Z,73.60
2018-11-26T09:08:44.001Z,73.34
2018-11-26T09:11:11.729Z,73.68
2018-11-26T09:13:39.519Z,73.62
2018-11-26T09:16:07.534Z,73.39
2018-11-26T09:18:35.282Z,73.27
2018-11-26T09:21:03.072Z,73.42
2018-11-26T09:23:30.852Z,73.51
2018-11-26T09:25:58.562Z,73.09
2018-11-26T09:28:26.346Z,73.25
2018-11-26T09:30:54.087Z,73.25
2018-11-26T09:33:21.844Z,73.37
2018-11-26T09:35:49.637Z,73.08
2018-11-26T09:38:17.451Z,73.16
2018-11-26T09:40:45.209Z,73.34
2018-11-26T09:43:12.974Z,73.43
2018-11-26T09:45:40.904Z,73.21
2018-11-26T09:48:08.735Z,73.39
2018-11-26T09:50:37.351Z,73.59
2018-11-26T09:53:05.437Z,74.01
2018-11-26T09:55:33.186Z,73.61
2018-11-26T09:58:01.771Z,73.72
2018-11-26T10:00:29.708Z,73.30
2018-11-26T10:02:57.495Z,73.42
2018-11-26T10:05:25.717Z,73.42
2018-11-26T10:07:53.526Z,73.75
2018-11-26T10:10:21.812Z,73.90
2018-11-26T10:12:49.607Z,73.35
2018-11-26T10:15:19.393Z,73.60
2018-11-26T10:17:47.594Z,73.50
2018-11-26T10:20:15.451Z,74.01
2018-11-26T10:22:43.751Z,73.79
2018-11-26T10:25:15.684Z,74.41
2018-11-26T10:27:43.523Z,74.45
2018-11-26T10:30:14.176Z,74.08
2018-11-26T10:32:42.298Z,73.94
2018-11-26T10:35:12.084Z,73.62
2018-11-26T10:37:39.947Z,73.89
2018-11-26T10:40:13.762Z,73.77
2018-11-26T10:42:41.524Z,73.63
2018-11-26T10:45:11.424Z,74.05
2018-11-26T10:47:39.141Z,74.57
2018-11-26T10:50:10.445Z,74.08
2018-11-26T10:52:38.313Z,74.36
2018-11-26T10:55:09.469Z,74.63
2018-11-26T10:57:37.146Z,74.38
2018-11-26T11:00:06.980Z,74.39
2018-11-26T11:02:40.182Z,74.43
2018-11-26T11:05:08.068Z,74.11
2018-11-26T11:07:35.808Z,74.77
2018-11-26T11:10:04.637Z,74.89
2018-11-26T11:12:33.105Z,74.25
2018-11-26T11:15:00.833Z,74.12
2018-11-26T11:17:28.607Z,74.18
2018-11-26T11:19:56.357Z,74.47
2018-11-26T11:22:24.064Z,74.07
2018-11-26T11:24:51.846Z,74.28
2018-11-26T11:27:19.632Z,74.74
2018-11-26T11:29:47.390Z,74.72
2018-11-26T11:32:15.106Z,74.74
2018-11-26T11:34:42.845Z,74.74
2018-11-26T11:37:10.588Z,75.39
2018-11-26T11:39:38.391Z,75.03
2018-11-26T11:42:06.179Z,74.84
2018-11-26T11:44:33.990Z,75.27
2018-11-26T11:47:01.797Z,75.57
2018-11-26T11:49:29.545Z,75.19
2018-11-26T11:51:57.307Z,75.32
2018-11-26T11:54:25.047Z,74.92
2018-11-26T11:56:52.954Z,75.26
2018-11-26T11:59:20.746Z,74.87
2018-11-26T12:01:48.688Z,75.56
2018-11-26T12:04:16.495Z,75.31
2018-11-26T12:06:44.318Z,75.04
2018-11-26T12:09:12.206Z,74.78
2018-11-26T12:11:41.013Z,75.09
2018-11-26T12:14:08.859Z,75.09
2018-11-26T12:16:36.716Z,74.84
2018-11-26T12:19:04.518Z,74.80
2018-11-26T12:21:32.280Z,74.50
2018-11-26T12:24:00.029Z,74.82
2018-11-26T12:26:27.779Z,74.46
2018-11-26T12:28:55.536Z,74.10
2018-11-26T12:31:23.335Z,74.26
2018-11-26T12:33:51.087Z,74.07
2018-11-26T12:36:18.822Z,74.46
2018-11-26T12:38:46.627Z,74.55
2018-11-26T12:41:14.424Z,74.33
2018-11-26T12:43:42.171Z,74.67
2018-11-26T12:46:09.942Z,74.57
2018-11-26T12:48:37.694Z,74.33
2018-11-26T12:51:05.650Z,74.32
2018-11-26T12:53:33.388Z,74.35
2018-11-26T12:56:01.162Z,74.43
2018-11-26T12:58:28.880Z,74.23
2018-11-26T13:00:56.642Z,73.71
2018-11-26T13:03:24.369Z,73.83
2018-11-26T13:05:52.104Z,73.95
2018-11-26T13:08:19.817Z,74.12
2018-11-26T13:10:47.554Z,73.90
2018-11-26T13:13:15.284Z,74.05
2018-11-26T13:15:43.165Z,74.11
2018-11-26T13:18:10.999Z,74.08
2018-11-26T13:20:38.794Z,73.89
2018-11-26T13:23:08.039Z,74.03
2018-11-26T13:25:41.556Z,74.72
2018-11-26T13:28:05.532Z,74.67
2018-11-26T13:30:37.592Z,74.79
2018-11-26T13:33:07.894Z,75.32
2018-11-26T13:35:35.749Z,74.80
2018-11-26T13:38:03.537Z,74.20
2018-11-26T13:40:31.308Z,75.09
2018-11-26T13:42:59.117Z,74.66
2018-11-26T13:45:28.939Z,75.08
2018-11-26T13:47:56.735Z,75.09
2018-11-26T13:50:27.499Z,75.14
2018-11-26T13:52:55.595Z,74.71
2018-11-26T13:55:23.597Z,75.07
2018-11-26T13:57:51.382Z,75.35
2018-11-26T14:00:19.370Z,75.58
2018-11-26T14:02:47.283Z,75.83
2018-11-26T14:05:17.088Z,76.07
2018-11-26T14:07:45.193Z,75.97
2018-11-26T14:10:16.241Z,75.71
2018-11-26T14:12:44.676Z,76.45
2018-11-26T14:15:15.075Z,76.05
2018-11-26T14:17:42.864Z,75.52
2018-11-26T14:20:14.232Z,75.12
2018-11-26T14:22:42.164Z,74.58
2018-11-26T14:25:18.107Z,74.58
2018-11-26T14:27:46.426Z,74.86
2018-11-26T14:30:16.674Z,74.08
2018-11-26T14:32:44.377Z,74.39
2018-11-26T14:35:12.233Z,74.70
2018-11-26T14:37:40.032Z,74.37
2018-11-26T14:40:11.378Z,74.91
2018-11-26T14:42:39.215Z,74.66
2018-11-26T14:45:09.455Z,74.40
2018-11-26T14:47:37.317Z,74.40
2018-11-26T14:50:07.721Z,74.34
2018-11-26T14:52:35.506Z,74.48
2018-11-26T14:55:03.357Z,74.78
2018-11-26T14:57:31.150Z,74.92
2018-11-26T14:59:58.874Z,74.92
2018-11-26T15:02:26.685Z,74.96
2018-11-26T15:04:54.436Z,75.12
2018-11-26T15:07:22.143Z,75.40
2018-11-26T15:09:49.911Z,75.20
2018-11-26T15:12:17.705Z,75.10
2018-11-26T15:14:45.431Z,75.08
2018-11-26T15:17:13.803Z,75.24
2018-11-26T15:19:41.625Z,74.84
2018-11-26T15:22:09.320Z,74.19
2018-11-26T15:24:37.101Z,74.28
2018-11-26T15:27:04.924Z,74.27
2018-11-26T15:29:32.754Z,74.34
2018-11-26T15:32:00.474Z,75.38
2018-11-26T15:34:28.241Z,74.59
2018-11-26T15:36:55.958Z,74.77
2018-11-26T15:39:23.681Z,74.49
2018-11-26T15:41:51.433Z,74.82
2018-11-26T15:44:19.283Z,75.34
2018-11-26T15:46:47.015Z,75.38
2018-11-26T15:49:14.732Z,75.49
2018-11-26T15:51:42.436Z,75.61
2018-11-26T15:54:10.231Z,76.27
2018-11-26T15:56:38.047Z,76.48
2018-11-26T15:59:05.856Z,75.30
2018-11-26T16:01:33.588Z,76.26
2018-11-26T16:04:01.286Z,75.84
2018-11-26T16:06:28.990Z,76.30
2018-11-26T16:08:56.822Z,76.53
2018-11-26T16:11:24.602Z,76.90
2018-11-26T16:13:52.364Z,76.41
2018-11-26T16:16:20.102Z,76.58
2018-11-26T16:18:47.839Z,76.77
2018-11-26T16:21:15.544Z,76.70
2018-11-26T16:23:43.315Z,76.82
2018-11-26T16:26:11.149Z,77.42
2018-11-26T16:28:38.936Z,77.39
2018-11-26T16:31:06.751Z,76.92
2018-11-26T16:33:34.486Z,77.08
2018-11-26T16:36:02.228Z,76.85
2018-11-26T16:38:30.548Z,77.20
2018-11-26T16:40:58.561Z,77.20
2018-11-26T16:43:26.386Z,77.19
2018-11-26T16:45:54.104Z,77.03
2018-11-26T16:48:21.831Z,76.52
2018-11-26T16:50:49.547Z,76.08
2018-11-26T16:53:19.372Z,76.84
2018-11-26T16:55:45.119Z,76.27
2018-11-26T16:58:12.881Z,75.97
2018-11-26T17:00:40.666Z,75.82
2018-11-26T17:03:08.504Z,76.42
2018-11-26T17:05:40.609Z,76.54
2018-11-26T17:08:12.572Z,76.22
2018-11-26T17:10:40.504Z,76.61
2018-11-26T17:13:08.593Z,76.61
2018-11-26T17:15:36.650Z,76.73
2018-11-26T17:18:05.169Z,76.79
2018-11-26T17:20:32.987Z,77.16
2018-11-26T17:23:01.062Z,77.25
2018-11-26T17:25:28.851Z,76.75
2018-11-26T17:27:57.491Z,76.97
2018-11-26T17:30:26.560Z,76.97
2018-11-26T17:32:57.523Z,76.74
2018-11-26T17:35:25.380Z,76.37
2018-11-26T17:37:53.337Z,76.00
2018-11-26T17:40:22.150Z,76.20
2018-11-26T17:42:50.296Z,76.45
2018-11-26T17:45:18.719Z,76.40
2018-11-26T17:47:50.096Z,75.81
2018-11-26T17:50:26.028Z,75.51
2018-11-26T17:52:54.524Z,76.24
2018-11-26T17:55:22.599Z,76.00
2018-11-26T17:57:50.485Z,75.80
2018-11-26T18:00:19.996Z,75.40
2018-11-26T18:02:47.894Z,75.53
2018-11-26T18:05:17.999Z,75.58
2018-11-26T18:07:47.229Z,75.27
2018-11-26T18:10:15.476Z,75.58
2018-11-26T18:12:43.319Z,75.94
2018-11-26T18:15:13.656Z,75.88
2018-11-26T18:17:41.573Z,75.58
2018-11-26T18:20:11.019Z,75.25
2018-11-26T18:22:38.759Z,75.48
2018-11-26T18:25:07.988Z,74.82
2018-11-26T18:27:35.939Z,74.72
2018-11-26T18:30:09.016Z,74.25
2018-11-26T18:32:36.892Z,73.72
2018-11-26T18:35:04.761Z,74.47
2018-11-26T18:37:32.488Z,73.34
2018-11-26T18:40:00.266Z,72.77
2018-11-26T18:42:28.038Z,72.65
2018-11-26T18:44:55.853Z,72.48
2018-11-26T18:47:23.604Z,72.11
2018-11-26T18:49:51.466Z,71.36
2018-11-26T18:52:19.229Z,71.55
2018-11-26T18:54:46.963Z,70.76
2018-11-26T18:57:14.728Z,70.66
2018-11-26T18:59:42.514Z,70.29
2018-11-26T19:02:10.307Z,70.64
2018-11-26T19:04:38.052Z,70.59
2018-11-26T19:07:05.998Z,70.52
2018-11-26T19:09:33.692Z,70.50
2018-11-26T19:12:04.120Z,70.09
2018-11-26T19:14:29.531Z,69.54
2018-11-26T19:16:57.738Z,69.93
2018-11-26T19:19:25.139Z,69.38
2018-11-26T19:21:52.888Z,69.19
2018-11-26T19:24:20.806Z,70.51
2018-11-26T19:26:48.562Z,69.61
2018-11-26T19:29:16.319Z,69.43
2018-11-26T19:31:44.079Z,69.42
2018-11-26T19:34:11.842Z,69.37
2018-11-26T19:36:39.723Z,69.46
2018-11-26T19:39:08.728Z,69.80
2018-11-26T19:41:36.929Z,70.07
2018-11-26T19:44:04.752Z,69.66
2018-11-26T19:46:32.589Z,69.29
2018-11-26T19:49:00.456Z,69.01
2018-11-26T19:51:28.297Z,69.04
2018-11-26T19:53:56.121Z,69.09
2018-11-26T19:56:23.854Z,68.89
2018-11-26T19:58:51.580Z,68.57
2018-11-26T20:01:19.324Z,68.76
2018-11-26T20:03:51.129Z,69.09
2018-11-26T20:06:20.620Z,68.96
2018-11-26T20:08:49.711Z,68.93
2018-11-26T20:11:17.468Z,69.36
2018-11-26T20:13:45.509Z,69.80
2018-11-26T20:16:18.009Z,69.57
2018-11-26T20:18:45.771Z,69.45
2018-11-26T20:21:13.579Z,69.29
2018-11-26T20:23:41.327Z,69.42
2018-11-26T20:26:09.099Z,69.51
2018-11-26T20:28:36.882Z,69.07
2018-11-26T20:31:05.344Z,70.04
2018-11-26T20:33:33.106Z,70.19
2018-11-26T20:36:00.886Z,70.41
2018-11-26T20:38:28.624Z,70.39
2018-11-26T20:40:56.379Z,69.96
2018-11-26T20:43:24.142Z,69.92
2018-11-26T20:45:51.959Z,69.97
2018-11-26T20:48:19.755Z,69.70
2018-11-26T20:50:49.743Z,69.93
2018-11-26T20:53:18.200Z,69.50
2018-11-26T20:55:45.958Z,69.75
2018-11-26T20:58:13.712Z,69.83
2018-11-26T21:00:41.992Z,69.91
2018-11-26T21:03:10.464Z,70.06
2018-11-26T21:05:39.077Z,69.87
2018-11-26T21:08:06.853Z,69.46
2018-11-26T21:10:34.707Z,69.67
2018-11-26T21:13:02.472Z,69.48
2018-11-26T21:15:30.280Z,69.63
2018-11-26T21:17:58.567Z,69.45
2018-11-26T21:20:31.168Z,69.33
2018-11-26T21:22:59.003Z,69.08
2018-11-26T21:25:26.800Z,69.25
2018-11-26T21:27:54.564Z,69.03
2018-11-26T21:30:22.359Z,68.84
2018-11-26T21:32:50.070Z,68.61
2018-11-26T21:35:18.679Z,68.55
2018-11-26T21:37:48.869Z,68.40
2018-11-26T21:40:20.392Z,68.14
2018-11-26T21:42:47.475Z,68.12
2018-11-26T21:45:25.563Z,68.69
2018-11-26T21:47:53.366Z,67.74
2018-11-26T21:50:21.084Z,67.86
2018-11-26T21:52:48.843Z,67.68
2018-11-26T21:55:17.697Z,67.69
2018-11-26T21:57:46.073Z,67.50
2018-11-26T22:00:21.753Z,67.53
2018-11-26T22:02:49.687Z,67.14
2018-11-26T22:05:17.472Z,67.25
2018-11-26T22:07:45.242Z,67.12
2018-11-26T22:10:15.044Z,67.27
2018-11-26T22:12:44.028Z,66.81
2018-11-26T22:15:12.743Z,67.18
2018-11-26T22:17:40.812Z,67.01
2018-11-26T22:20:13.869Z,67.23
2018-11-26T22:22:41.595Z,67.71
2018-11-26T22:25:10.614Z,67.63
2018-11-26T22:27:38.465Z,67.46
2018-11-26T22:30:14.775Z,67.57
2018-11-26T22:32:42.595Z,67.12
2018-11-26T22:35:10.776Z,67.17
2018-11-26T22:37:38.575Z,67.62
2018-11-26T22:40:15.528Z,67.44
2018-11-26T22:42:43.359Z,68.11
2018-11-26T22:45:12.482Z,68.08
2018-11-26T22:47:40.364Z,67.16
2018-11-26T22:50:13.954Z,67.33
2018-11-26T22:52:41.841Z,67.71
2018-11-26T22:55:10.982Z,67.71
2018-11-26T22:57:38.746Z,67.78
2018-11-26T23:00:21.189Z,67.74
2018-11-26T23:02:49.091Z,67.73
2018-11-26T23:05:16.842Z,67.99
2018-11-26T23:07:44.572Z,67.47
2018-11-26T23:10:12.386Z,67.80
2018-11-26T23:12:40.096Z,67.70
2018-11-26T23:15:10.278Z,67.66
2018-11-26T23:17:38.004Z,67.48
2018-11-26T23:20:08.406Z,67.41
2018-11-26T23:22:36.154Z,67.33
2018-11-26T23:25:04.261Z,67.17
2018-11-26T23:27:32.024Z,66.97
2018-11-26T23:29:59.824Z,66.98
2018-11-26T23:32:27.605Z,66.77
2018-11-26T23:34:55.396Z,67.27
2018-11-26T23:37:23.199Z,67.07
2018-11-26T23:39:51.016Z,66.91
2018-11-26T23:42:18.871Z,66.77
2018-11-26T23:44:46.583Z,67.11
2018-11-26T23:47:14.395Z,67.22
2018-11-26T23:49:42.108Z,67.80
2018-11-26T23:52:09.906Z,67.46
2018-11-26T23:54:37.692Z,66.92
2018-11-26T23:57:05.742Z,67.19
2018-11-26T23:59:33.504Z,67.42
